Time;durP1;ratioP1;P1;durP2;ratioP2;P2;SDS_P1;SDS_P2;PMS_P1;PMS_P2;Temp;Humidity;BMP_temperature;BMP_pressure;BME280_temperature;BME280_humidity;BME280_pressure;Samples;Min_cycle;Max_cycle;Signal;HPM_P1;HPM_P2
2024/03/06 00:00:09;;;;;;;69.00;34.50;;;;;;;3.34;100.00;99199.45;272505;1265;22372;-87
2024/03/06 00:06:12;;;;;;;72.50;34.40;;;;;;;3.17;100.00;99197.92;272927;1265;22537;-89
2024/03/06 00:12:14;;;;;;;72.10;35.60;;;;;;;2.98;100.00;99190.70;271564;1264;22363;-90
2024/03/06 00:18:17;;;;;;;57.80;29.00;;;;;;;2.83;100.00;99191.42;273105;1265;22989;-90
2024/03/06 00:24:19;;;;;;;56.80;28.50;;;;;;;2.64;100.00;99198.23;273609;1265;22191;-89
2024/03/06 00:30:21;;;;;;;66.80;30.90;;;;;;;2.41;100.00;99199.02;272211;1266;22558;-91
2024/03/06 00:36:23;;;;;;;68.10;33.30;;;;;;;2.26;100.00;99202.22;271056;1265;22519;-89
2024/03/06 00:42:25;;;;;;;69.30;32.00;;;;;;;2.14;100.00;99207.45;271943;1265;22193;-90
2024/03/06 00:48:27;;;;;;;66.40;32.70;;;;;;;2.00;100.00;99212.40;273597;1265;22265;-89
2024/03/06 00:54:29;;;;;;;72.10;33.80;;;;;;;1.83;100.00;99211.74;273499;1264;22444;-89
2024/03/06 01:00:31;;;;;;;72.20;34.50;;;;;;;1.74;100.00;99211.29;273512;1265;23610;-88
2024/03/06 01:06:36;;;;;;;79.40;37.50;;;;;;;1.60;100.00;99210.23;273430;1265;22308;-90
2024/03/06 01:12:38;;;;;;;79.50;36.90;;;;;;;1.48;100.00;99213.81;272371;1259;22198;-88
2024/03/06 01:18:40;;;;;;;85.80;38.30;;;;;;;1.37;100.00;99217.80;271857;1265;22538;-88
2024/03/06 01:24:42;;;;;;;84.00;37.10;;;;;;;1.27;100.00;99213.66;272648;1265;22170;-88
2024/03/06 01:30:44;;;;;;;88.30;37.30;;;;;;;1.19;100.00;99211.39;273569;1265;22206;-88
2024/03/06 01:36:46;;;;;;;80.00;36.70;;;;;;;1.12;100.00;99209.26;273515;1266;22314;-88
2024/03/06 01:42:48;;;;;;;81.60;37.60;;;;;;;1.01;100.00;99212.23;273501;1265;22359;-88
2024/03/06 01:48:50;;;;;;;71.80;33.70;;;;;;;0.91;100.00;99218.50;273575;1264;22359;-89
2024/03/06 01:54:53;;;;;;;76.20;35.40;;;;;;;0.81;100.00;99222.89;273621;1265;22235;-88
2024/03/06 02:00:55;;;;;;;90.90;36.70;;;;;;;0.70;100.00;99224.61;273578;1265;22210;-88
2024/03/06 02:06:58;;;;;;;91.60;38.70;;;;;;;0.58;100.00;99224.19;271800;1265;22372;-87
2024/03/06 02:13:00;;;;;;;87.40;35.80;;;;;;;0.50;100.00;99217.36;272580;1265;23756;-88
2024/03/06 02:19:03;;;;;;;86.70;36.80;;;;;;;0.46;100.00;99210.67;271319;1265;23327;-89
2024/03/06 02:25:06;;;;;;;82.60;32.60;;;;;;;0.43;100.00;99212.95;270867;1265;25337;-90
2024/03/06 02:31:12;;;;;;;70.00;28.90;;;;;;;0.39;100.00;99214.70;272385;1250;22832;-88
2024/03/06 02:37:14;;;;;;;88.30;31.60;;;;;;;0.30;100.00;99219.97;271007;1269;24620;-88
2024/03/06 02:43:16;;;;;;;82.60;37.00;;;;;;;0.17;100.00;99229.24;271215;1269;22693;-88
2024/03/06 02:49:18;;;;;;;99.70;38.20;;;;;;;0.09;100.00;99229.89;271326;1269;271357;-88
2024/03/06 02:55:22;;;;;;;89.00;35.80;;;;;;;0.04;100.00;99237.09;270370;1268;22993;-88
2024/03/06 03:01:24;;;;;;;75.10;32.80;;;;;;;-0.01;100.00;99247.20;272663;1269;22346;-87
2024/03/06 03:07:25;;;;;;;81.50;34.20;;;;;;;-0.01;100.00;99255.81;273105;1269;22394;-88
2024/03/06 03:13:27;;;;;;;83.60;34.00;;;;;;;0.09;100.00;99257.03;272779;1269;22442;-89
2024/03/06 03:19:29;;;;;;;121.50;43.20;;;;;;;0.13;100.00;99260.34;272829;1268;23766;-88
2024/03/06 03:25:31;;;;;;;105.00;39.60;;;;;;;0.13;100.00;99261.95;272742;1268;22520;-87
2024/03/06 03:31:33;;;;;;;103.40;38.50;;;;;;;0.16;100.00;99264.05;270894;1269;22545;-87
2024/03/06 03:37:35;;;;;;;119.90;38.50;;;;;;;0.19;100.00;99270.98;272473;1269;24882;-89
2024/03/06 03:43:39;;;;;;;140.90;38.90;;;;;;;0.25;100.00;99272.80;272370;1269;23716;-88
2024/03/06 03:49:41;;;;;;;124.20;38.10;;;;;;;0.30;100.00;99276.73;272989;1268;22402;-88
2024/03/06 03:55:45;;;;;;;201.00;42.70;;;;;;;0.33;100.00;99273.77;273151;1269;23358;-90
2024/03/06 04:01:47;;;;;;;148.70;39.60;;;;;;;0.39;100.00;99264.95;272911;1269;22576;-89
2024/03/06 04:07:49;;;;;;;157.90;39.10;;;;;;;0.49;100.00;99265.88;272864;1261;22268;-88
2024/03/06 04:13:51;;;;;;;136.60;39.40;;;;;;;0.49;100.00;99272.29;273087;1268;22429;-88
2024/03/06 04:19:55;;;;;;;138.40;38.40;;;;;;;0.50;100.00;99271.84;272906;1269;22172;-88
2024/03/06 04:25:57;;;;;;;164.90;29.90;;;;;;;0.52;100.00;99268.28;273003;1269;22275;-89
2024/03/06 04:31:59;;;;;;;118.80;28.60;;;;;;;0.51;100.00;99271.70;272366;1269;22532;-88
2024/03/06 04:38:03;;;;;;;149.50;29.70;;;;;;;0.53;100.00;99276.66;271653;1268;22458;-88
2024/03/06 04:44:05;;;;;;;153.00;31.40;;;;;;;0.56;100.00;99287.76;273007;1269;22256;-88
2024/03/06 04:50:12;;;;;;;159.00;29.80;;;;;;;0.55;100.00;99290.96;272891;1269;22442;-88
2024/03/06 04:56:13;;;;;;;121.60;29.30;;;;;;;0.59;100.00;99291.59;272769;1269;22296;-88
2024/03/06 05:02:15;;;;;;;149.20;32.30;;;;;;;0.63;100.00;99292.08;272828;1269;22496;-89
2024/03/06 05:08:18;;;;;;;99.90;28.90;;;;;;;0.61;100.00;99296.42;273047;1269;22399;-88
2024/03/06 05:14:20;;;;;;;114.00;29.90;;;;;;;0.59;100.00;99303.42;272948;1269;22541;-88
2024/03/06 05:20:22;;;;;;;119.60;30.70;;;;;;;0.62;100.00;99305.88;269965;1269;22488;-88
2024/03/06 05:26:24;;;;;;;115.30;37.60;;;;;;;0.65;100.00;99306.75;270076;1268;22524;-88
2024/03/06 05:32:26;;;;;;;97.60;32.60;;;;;;;0.65;100.00;99310.89;269704;1269;22549;-88
2024/03/06 05:38:28;;;;;;;73.50;30.10;;;;;;;0.66;100.00;99317.86;270079;1269;24598;-88
2024/03/06 05:44:31;;;;;;;116.50;31.90;;;;;;;0.72;100.00;99318.34;272739;1268;23061;-88
2024/03/06 05:50:33;;;;;;;110.00;32.60;;;;;;;0.74;100.00;99326.21;272990;1269;22378;-88
2024/03/06 05:56:35;;;;;;;98.10;29.20;;;;;;;0.79;100.00;99329.66;273151;1269;22238;-89
2024/03/06 06:02:39;;;;;;;92.40;30.20;;;;;;;0.85;100.00;99329.36;272692;1269;22787;-88
2024/03/06 06:08:43;;;;;;;99.60;30.30;;;;;;;0.91;100.00;99331.02;271254;1269;22559;-87
2024/03/06 06:14:45;;;;;;;97.90;29.40;;;;;;;0.96;100.00;99338.39;270164;1269;24917;-88
2024/03/06 06:20:48;;;;;;;110.70;28.60;;;;;;;1.02;100.00;99340.14;270988;1269;23799;-89
2024/03/06 06:26:50;;;;;;;103.00;36.90;;;;;;;1.13;100.00;99338.88;271017;1269;22616;-87
2024/03/06 06:32:52;;;;;;;107.20;36.90;;;;;;;1.24;100.00;99340.07;270368;1268;22380;-89
2024/03/06 06:38:54;;;;;;;118.10;41.70;;;;;;;1.30;100.00;99342.44;270929;1269;23802;-88
2024/03/06 06:44:56;;;;;;;156.40;45.80;;;;;;;1.42;100.00;99342.91;270833;1269;22649;-89
2024/03/06 06:50:57;;;;;;;131.90;44.70;;;;;;;1.56;100.00;99343.81;273102;1269;23291;-88
2024/03/06 06:57:02;;;;;;;143.30;50.60;;;;;;;1.68;100.00;99341.40;272958;1267;22354;-88
2024/03/06 07:03:08;;;;;;;125.40;45.50;;;;;;;1.75;100.00;99343.67;273043;1259;24222;-90
2024/03/06 07:09:11;;;;;;;118.60;42.20;;;;;;;1.81;100.00;99339.99;273136;1267;22421;-89
2024/03/06 07:15:13;;;;;;;114.00;41.80;;;;;;;1.87;100.00;99335.52;272978;1269;22370;-88
2024/03/06 07:21:15;;;;;;;113.90;41.20;;;;;;;1.89;100.00;99337.94;273041;1267;23545;-88
2024/03/06 07:27:18;;;;;;;135.40;47.80;;;;;;;1.91;100.00;99339.63;273068;1267;23616;-87
2024/03/06 07:33:20;;;;;;;106.20;39.10;;;;;;;1.89;100.00;99350.10;273004;1268;22475;-88
2024/03/06 07:39:22;;;;;;;89.40;35.50;;;;;;;1.85;100.00;99344.97;273077;1269;22457;-88
2024/03/06 07:45:24;;;;;;;80.90;33.50;;;;;;;1.89;100.00;99346.80;273009;1267;23914;-88
2024/03/06 07:51:26;;;;;;;78.80;32.20;;;;;;;1.94;100.00;99350.05;272183;1267;24359;-90
2024/03/06 07:57:28;;;;;;;84.80;34.60;;;;;;;1.93;100.00;99350.16;270818;1267;22498;-89
2024/03/06 08:03:29;;;;;;;81.10;33.00;;;;;;;1.96;100.00;99353.16;272464;1269;23117;-87
2024/03/06 08:09:31;;;;;;;79.80;33.70;;;;;;;1.95;100.00;99357.60;273147;1267;22199;-89
2024/03/06 08:15:46;;;;;;;91.80;37.80;;;;;;;2.02;100.00;99361.80;272813;1269;23056;-88
2024/03/06 08:21:46;;;;;;;75.90;33.80;;;;;;;2.13;100.00;99368.43;272772;1267;23810;-87
2024/03/06 08:27:47;;;;;;;69.70;32.50;;;;;;;2.15;100.00;99366.48;272598;1267;22190;-88
2024/03/06 08:33:48;;;;;;;66.90;28.50;;;;;;;2.11;100.00;99364.80;272442;1267;22475;-88
2024/03/06 08:39:49;;;;;;;74.20;32.20;;;;;;;2.02;100.00;99366.27;270439;1267;25300;-89
2024/03/06 08:45:50;;;;;;;67.10;30.60;;;;;;;2.00;100.00;99369.03;269905;1267;22556;-88
2024/03/06 08:51:51;;;;;;;62.80;30.00;;;;;;;1.99;100.00;99372.46;272743;1267;23433;-88
2024/03/06 08:57:52;;;;;;;64.40;28.40;;;;;;;2.03;100.00;99377.11;273189;1267;22316;-88
2024/03/06 09:03:53;;;;;;;60.80;27.30;;;;;;;2.05;100.00;99378.20;272859;1267;22354;-89
2024/03/06 09:09:54;;;;;;;56.10;28.30;;;;;;;2.02;100.00;99381.02;273374;1263;22205;-89
2024/03/06 09:15:55;;;;;;;68.20;31.50;;;;;;;2.01;100.00;99379.90;272935;1267;24497;-90
2024/03/06 09:22:15;;;;;;;62.40;29.80;;;;;;;2.04;100.00;99378.70;272351;1267;22669;-89
2024/03/06 09:28:22;;;;;;;72.90;33.10;;;;;;;1.98;100.00;99377.63;272152;1268;22462;-89
2024/03/06 09:34:34;;;;;;;72.00;32.60;;;;;;;1.99;100.00;99381.33;272963;1269;22606;-89
2024/03/06 09:40:40;;;;;;;68.60;32.30;;;;;;;2.00;100.00;99384.16;271814;1267;22810;-91
2024/03/06 09:46:46;;;;;;;67.90;31.80;;;;;;;2.05;100.00;99385.33;272520;1269;22600;-90
2024/03/06 09:52:53;;;;;;;71.20;31.60;;;;;;;2.11;100.00;99386.48;272239;1269;23423;-89
2024/03/06 09:58:57;;;;;;;62.50;30.70;;;;;;;2.18;100.00;99386.39;270949;1269;22431;-89
2024/03/06 10:04:58;;;;;;;72.00;32.60;;;;;;;2.28;100.00;99385.95;272920;1267;22390;-89
2024/03/06 10:11:00;;;;;;;66.70;31.90;;;;;;;2.43;100.00;99385.83;272731;1269;22215;-89
2024/03/06 10:17:03;;;;;;;80.90;34.90;;;;;;;2.60;100.00;99384.59;272781;1269;22413;-89
2024/03/06 10:23:12;;;;;;;69.60;34.00;;;;;;;2.75;100.00;99383.94;272931;1268;22198;-90
2024/03/06 10:29:27;;;;;;;74.00;36.30;;;;;;;2.90;100.00;99384.66;272642;1269;23453;-88
2024/03/06 10:35:30;;;;;;;66.90;34.40;;;;;;;3.00;100.00;99377.77;272542;1269;22387;-88
2024/03/06 10:41:33;;;;;;;71.70;34.30;;;;;;;3.10;100.00;99378.70;272514;1269;23183;-89
2024/03/06 10:47:51;;;;;;;61.50;30.30;;;;;;;3.12;100.00;99384.19;271171;1269;22624;-88
2024/03/06 10:53:58;;;;;;;59.60;29.90;;;;;;;3.06;100.00;99382.41;270409;1269;25281;-89
2024/03/06 11:00:06;;;;;;;62.40;31.40;;;;;;;2.95;100.00;99377.55;270437;1269;22559;-89
2024/03/06 11:06:27;;;;;;;56.50;30.50;;;;;;;2.97;100.00;99376.02;271131;1269;23315;-89
2024/03/06 11:12:56;;;;;;;63.70;32.70;;;;;;;3.04;100.00;99373.64;272642;1269;22386;-90
2024/03/06 11:19:10;;;;;;;65.20;33.60;;;;;;;3.09;100.00;99371.95;270935;1269;22721;-91
2024/03/06 11:25:48;;;;;;;63.70;32.50;;;;;;;3.11;100.00;99371.98;270302;1269;22574;-89
2024/03/06 11:32:09;;;;;;;62.20;31.90;;;;;;;3.17;100.00;99371.09;270712;1269;22153;-89
2024/03/06 11:38:11;;;;;;;60.00;30.80;;;;;;;3.23;100.00;99366.64;270710;1267;22989;-89
2024/03/06 11:44:15;;;;;;;60.90;31.60;;;;;;;3.18;100.00;99363.16;272237;1267;22252;-89
2024/03/06 11:50:16;;;;;;;66.60;34.60;;;;;;;3.11;100.00;99360.46;272641;1267;22314;-88
2024/03/06 11:56:21;;;;;;;80.40;39.10;;;;;;;3.15;100.00;99354.61;272858;1267;22342;-89
2024/03/06 12:02:21;;;;;;;67.40;34.20;;;;;;;3.24;100.00;99355.46;271401;1267;22722;-88
2024/03/06 12:08:23;;;;;;;63.60;34.40;;;;;;;3.23;100.00;99353.02;270977;1267;22578;-90
2024/03/06 12:14:24;;;;;;;68.80;36.50;;;;;;;3.20;100.00;99349.86;272963;1267;22473;-90
2024/03/06 12:20:28;;;;;;;76.50;38.80;;;;;;;3.22;100.00;99352.16;273059;1267;23003;-90
2024/03/06 12:26:31;;;;;;;77.10;39.20;;;;;;;3.30;100.00;99347.07;272989;1267;22411;-89
2024/03/06 12:32:32;;;;;;;75.10;38.50;;;;;;;3.30;100.00;99343.27;272858;1267;23314;-89
2024/03/06 12:38:33;;;;;;;76.00;38.80;;;;;;;3.33;100.00;99344.33;272984;1269;22203;-89
2024/03/06 12:44:34;;;;;;;71.40;36.40;;;;;;;3.38;100.00;99346.27;272784;1268;22468;-90
2024/03/06 12:50:38;;;;;;;61.70;34.40;;;;;;;3.44;100.00;99341.96;272976;1269;22233;-89
2024/03/06 12:56:41;;;;;;;62.10;32.10;;;;;;;3.52;100.00;99344.51;272822;1268;22191;-89
2024/03/06 13:02:43;;;;;;;64.10;34.60;;;;;;;3.58;100.00;99344.36;272623;1269;22389;-91
2024/03/06 13:08:44;;;;;;;70.60;36.40;;;;;;;3.61;100.00;99346.53;272718;1269;22433;-90
2024/03/06 13:14:45;;;;;;;68.60;35.90;;;;;;;3.66;100.00;99347.05;272710;1269;22470;-89
2024/03/06 13:20:46;;;;;;;64.10;32.40;;;;;;;3.59;100.00;99339.02;271214;1268;22561;-89
2024/03/06 13:26:47;;;;;;;63.20;31.90;;;;;;;3.60;100.00;99344.63;270463;1269;22542;-89
2024/03/06 13:32:48;;;;;;;63.10;32.20;;;;;;;3.58;100.00;99342.81;270062;1269;22475;-88
2024/03/06 13:38:48;;;;;;;62.30;32.10;;;;;;;3.49;100.00;99341.08;272746;1269;22233;-89
2024/03/06 13:44:49;;;;;;;65.40;32.70;;;;;;;3.45;100.00;99338.07;273128;1269;22426;-89
2024/03/06 13:50:50;;;;;;;70.40;34.80;;;;;;;3.43;100.00;99339.38;272852;1269;22357;-90
2024/03/06 13:56:53;;;;;;;72.70;34.80;;;;;;;3.39;100.00;99343.24;272784;1268;22414;-91
2024/03/06 14:02:54;;;;;;;76.90;35.70;;;;;;;3.43;100.00;99341.61;272737;1269;22237;-90
